Time;durP1;ratioP1;P1;durP2;ratioP2;P2;SDS_P1;SDS_P2;PMS_P1;PMS_P2;Temp;Humidity;BMP_temperature;BMP_pressure;BME280_temperature;BME280_humidity;BME280_pressure;Samples;Min_cycle;Max_cycle;Signal;HPM_P1;HPM_P2
2023/05/11 00:02:48;;;;;;;;;;;14.60;99.90;;;;;;8372943;28;19924;-77
2023/05/11 00:06:49;;;;;;;;;;;14.60;99.90;;;;;;8380958;28;19932;-77
2023/05/11 00:10:51;;;;;;;;;;;14.60;99.90;;;;;;8364513;28;20439;-77
2023/05/11 00:14:52;;;;;;;;;;;14.60;99.90;;;;;;8388858;28;19924;-77
2023/05/11 00:18:54;;;;;;;;;;;14.50;99.90;;;;;;8385692;28;20081;-77
2023/05/11 00:22:56;;;;;;;;;;;14.50;99.90;;;;;;8388775;28;19932;-77
2023/05/11 00:26:58;;;;;;;;;;;14.50;99.90;;;;;;8365909;28;20144;-77
2023/05/11 00:30:59;;;;;;;;;;;14.50;99.90;;;;;;8365309;28;19971;-78
2023/05/11 00:35:01;;;;;;;;;;;14.40;99.90;;;;;;8386833;28;19964;-78
2023/05/11 00:39:02;;;;;;;;;;;14.40;99.90;;;;;;8376914;28;19924;-78
2023/05/11 00:43:04;;;;;;;;;;;14.40;99.90;;;;;;8367087;28;20338;-77
2023/05/11 00:47:06;;;;;;;;;;;14.40;99.90;;;;;;8376129;28;19932;-77
2023/05/11 00:51:09;;;;;;;;;;;14.40;99.90;;;;;;8361942;28;19933;-77
2023/05/11 00:55:12;;;;;;;;;;;14.30;99.90;;;;;;8379309;28;20380;-77
2023/05/11 00:59:14;;;;;;;;;;;14.30;99.90;;;;;;8371328;28;19928;-78
2023/05/11 01:03:16;;;;;;;;;;;14.30;99.90;;;;;;8371285;28;20384;-77
2023/05/11 01:07:20;;;;;;;;;;;14.20;99.90;;;;;;8358391;28;20521;-77
2023/05/11 01:11:29;;;;;;;;;;;14.20;99.90;;;;;;8373474;28;19979;-77
2023/05/11 01:15:41;;;;;;;;;;;14.20;99.90;;;;;;8376210;28;19955;-77
2023/05/11 01:19:52;;;;;;;;;;;14.10;99.90;;;;;;8381235;28;20011;-77
2023/05/11 01:23:54;;;;;;;;;;;14.10;99.90;;;;;;8362941;28;19929;-77
2023/05/11 01:27:56;;;;;;;;;;;14.00;99.90;;;;;;8380220;28;19959;-77
2023/05/11 01:32:03;;;;;;;;;;;13.90;99.90;;;;;;8361222;28;19967;-77
2023/05/11 01:36:07;;;;;;;;;;;13.90;99.90;;;;;;8380320;28;20391;-78
2023/05/11 01:40:12;;;;;;;;;;;13.80;99.90;;;;;;8364466;28;20371;-77
2023/05/11 01:44:15;;;;;;;;;;;13.80;99.90;;;;;;8387500;28;19957;-77
2023/05/11 01:48:19;;;;;;;;;;;13.80;99.90;;;;;;8380725;28;19924;-77
2023/05/11 01:52:22;;;;;;;;;;;13.70;99.90;;;;;;8387574;28;20388;-78
2023/05/11 01:56:25;;;;;;;;;;;13.70;99.90;;;;;;8385141;28;19925;-77
2023/05/11 02:00:27;;;;;;;;;;;13.70;99.90;;;;;;8382175;28;19968;-77
2023/05/11 02:04:29;;;;;;;;;;;13.60;99.90;;;;;;8383035;28;19968;-77
2023/05/11 02:08:32;;;;;;;;;;;13.60;99.90;;;;;;8385645;28;19928;-77
2023/05/11 02:12:34;;;;;;;;;;;13.60;99.90;;;;;;8394897;28;19925;-78
2023/05/11 02:16:37;;;;;;;;;;;13.50;99.90;;;;;;8383061;28;20027;-78
2023/05/11 02:20:42;;;;;;;;;;;13.50;99.90;;;;;;8382833;28;19925;-78
2023/05/11 02:24:45;;;;;;;;;;;13.40;99.90;;;;;;8383681;28;19955;-78
2023/05/11 02:28:47;;;;;;;;;;;13.40;99.90;;;;;;8388864;28;19931;-77
2023/05/11 02:32:51;;;;;;;;;;;13.40;99.90;;;;;;8381886;28;19928;-77
2023/05/11 02:36:56;;;;;;;;;;;13.40;99.90;;;;;;8389330;28;20379;-77
2023/05/11 02:41:00;;;;;;;;;;;13.40;99.90;;;;;;8376896;28;20376;-78
2023/05/11 02:45:07;;;;;;;;;;;13.40;99.90;;;;;;8385718;28;19925;-78
2023/05/11 02:49:09;;;;;;;;;;;13.40;99.90;;;;;;8369337;28;19925;-77
2023/05/11 02:53:14;;;;;;;;;;;13.40;99.90;;;;;;8378076;28;20372;-78
2023/05/11 02:57:17;;;;;;;;;;;13.40;99.90;;;;;;8372473;28;19960;-78
2023/05/11 03:01:18;;;;;;;;;;;13.40;99.90;;;;;;8381241;28;19925;-78
2023/05/11 03:05:20;;;;;;;;;;;13.30;99.90;;;;;;8359380;28;20069;-77
2023/05/11 03:09:22;;;;;;;;;;;13.30;99.90;;;;;;8379092;28;19984;-77
2023/05/11 03:13:24;;;;;;;;;;;13.30;99.90;;;;;;8381545;28;20407;-78
2023/05/11 03:17:29;;;;;;;;;;;13.20;99.90;;;;;;8405393;28;19975;-78
2023/05/11 03:36:43;;;;;;;;;;;13.20;99.90;;;;;;8392269;28;20466;-78
2023/05/11 03:40:45;;;;;;;;;;;13.20;99.90;;;;;;8388284;28;19936;-77
2023/05/11 03:44:48;;;;;;;;;;;13.20;99.90;;;;;;8385868;28;19948;-78
2023/05/11 03:48:50;;;;;;;;;;;13.10;99.90;;;;;;8337623;28;19990;-77
2023/05/11 03:52:52;;;;;;;;;;;13.10;99.90;;;;;;8353443;28;19928;-78
2023/05/11 03:56:54;;;;;;;;;;;13.10;99.90;;;;;;8347973;28;19960;-77
2023/05/11 04:00:56;;;;;;;;;;;13.10;99.90;;;;;;8371297;28;19925;-78
2023/05/11 04:04:57;;;;;;;;;;;13.00;99.90;;;;;;8341910;28;19925;-77
2023/05/11 04:08:59;;;;;;;;;;;13.00;99.90;;;;;;8355408;28;19932;-77
2023/05/11 04:13:00;;;;;;;;;;;13.00;99.90;;;;;;8368203;28;19935;-77
2023/05/11 04:17:03;;;;;;;;;;;13.00;99.90;;;;;;8364638;28;20035;-77
2023/05/11 04:21:05;;;;;;;;;;;12.90;99.90;;;;;;8380222;28;19976;-77
2023/05/11 04:25:07;;;;;;;;;;;12.90;99.90;;;;;;8386199;28;19924;-77
2023/05/11 04:29:08;;;;;;;;;;;12.90;99.90;;;;;;8359852;28;20018;-77
2023/05/11 04:33:11;;;;;;;;;;;12.90;99.90;;;;;;8369902;28;20377;-77
2023/05/11 04:37:12;;;;;;;;;;;12.90;99.90;;;;;;8385017;28;19924;-78
2023/05/11 04:41:14;;;;;;;;;;;12.90;99.90;;;;;;8383942;28;20228;-77
2023/05/11 04:45:16;;;;;;;;;;;12.90;99.90;;;;;;8366181;28;19928;-77
2023/05/11 04:49:18;;;;;;;;;;;13.00;99.90;;;;;;8369075;28;19925;-77
2023/05/11 04:53:19;;;;;;;;;;;13.00;99.90;;;;;;8384444;28;19925;-77
2023/05/11 04:57:21;;;;;;;;;;;12.90;99.90;;;;;;8360910;28;20073;-77
2023/05/11 05:01:22;;;;;;;;;;;13.00;99.90;;;;;;8383865;28;20063;-77
2023/05/11 05:05:24;;;;;;;;;;;13.00;99.90;;;;;;8365466;28;19932;-77
2023/05/11 05:09:26;;;;;;;;;;;13.10;99.90;;;;;;8395344;28;20050;-77
2023/05/11 05:13:27;;;;;;;;;;;13.10;99.90;;;;;;8370840;28;19931;-77
2023/05/11 05:17:29;;;;;;;;;;;13.10;99.90;;;;;;8378803;28;20326;-77
2023/05/11 05:21:31;;;;;;;;;;;13.20;99.90;;;;;;8381498;28;19988;-77
2023/05/11 05:25:32;;;;;;;;;;;13.20;99.90;;;;;;8381885;28;19928;-77
2023/05/11 05:29:34;;;;;;;;;;;13.30;99.90;;;;;;8397054;28;20027;-77
2023/05/11 05:33:36;;;;;;;;;;;13.30;99.90;;;;;;8386690;28;20011;-76
2023/05/11 05:37:37;;;;;;;;;;;13.30;99.90;;;;;;8384424;28;19932;-76
2023/05/11 05:41:40;;;;;;;;;;;13.30;99.90;;;;;;8392612;28;20019;-76
2023/05/11 05:45:42;;;;;;;;;;;13.40;99.90;;;;;;8388636;28;19990;-76
2023/05/11 05:49:44;;;;;;;;;;;13.40;99.90;;;;;;8368648;28;19964;-76
2023/05/11 05:53:45;;;;;;;;;;;13.50;99.90;;;;;;8377785;28;20444;-76
2023/05/11 05:57:47;;;;;;;;;;;13.60;99.90;;;;;;8370976;28;19932;-76
2023/05/11 06:01:49;;;;;;;;;;;13.60;99.90;;;;;;8386232;28;19986;-76
2023/05/11 06:05:51;;;;;;;;;;;13.60;99.90;;;;;;8365638;28;19936;-76
2023/05/11 06:09:52;;;;;;;;;;;13.60;99.90;;;;;;8390201;28;19977;-76
2023/05/11 06:13:54;;;;;;;;;;;13.60;99.90;;;;;;8367470;28;19931;-76
2023/05/11 06:17:56;;;;;;;;;;;13.70;99.90;;;;;;8367436;28;19925;-76
2023/05/11 06:21:57;;;;;;;;;;;13.70;99.90;;;;;;8379829;28;20521;-76
2023/05/11 06:25:59;;;;;;;;;;;13.80;99.90;;;;;;8392522;28;19978;-76
2023/05/11 06:30:01;;;;;;;;;;;13.90;99.90;;;;;;8369846;28;19975;-76
2023/05/11 06:34:03;;;;;;;;;;;14.00;99.90;;;;;;8387052;28;19954;-77
2023/05/11 06:38:04;;;;;;;;;;;14.10;99.90;;;;;;8373495;28;20430;-77
2023/05/11 06:42:06;;;;;;;;;;;14.30;99.90;;;;;;8393244;28;19932;-76
2023/05/11 06:46:08;;;;;;;;;;;14.40;99.90;;;;;;8393761;28;20664;-77
2023/05/11 06:50:10;;;;;;;;;;;14.50;99.90;;;;;;8396625;28;19925;-77
2023/05/11 06:54:12;;;;;;;;;;;14.70;99.90;;;;;;8386752;28;19940;-76
2023/05/11 06:58:14;;;;;;;;;;;14.80;99.90;;;;;;8384380;28;19932;-77
2023/05/11 07:02:15;;;;;;;;;;;14.90;99.90;;;;;;8384079;28;19962;-76
2023/05/11 07:06:17;;;;;;;;;;;15.00;99.90;;;;;;8361580;28;20394;-76
2023/05/11 07:10:19;;;;;;;;;;;15.10;99.90;;;;;;8375230;28;19946;-77
2023/05/11 07:14:20;;;;;;;;;;;15.20;99.90;;;;;;8389130;28;20414;-76
2023/05/11 07:18:22;;;;;;;;;;;15.20;99.90;;;;;;8369496;28;19967;-76
2023/05/11 07:22:24;;;;;;;;;;;15.20;99.90;;;;;;8368978;28;19974;-76
2023/05/11 07:26:25;;;;;;;;;;;15.30;99.90;;;;;;8386126;28;20307;-76
2023/05/11 07:30:27;;;;;;;;;;;15.40;99.90;;;;;;8387355;28;20003;-77
2023/05/11 07:34:29;;;;;;;;;;;15.40;99.90;;;;;;8364396;28;19931;-76
2023/05/11 07:38:30;;;;;;;;;;;15.50;99.90;;;;;;8385587;28;20319;-76
2023/05/11 07:42:32;;;;;;;;;;;15.60;99.90;;;;;;8368978;28;20019;-76
2023/05/11 07:46:34;;;;;;;;;;;15.70;99.90;;;;;;8360857;28;19931;-76
2023/05/11 07:50:35;;;;;;;;;;;15.90;99.90;;;;;;8380413;28;20356;-76
2023/05/11 07:54:38;;;;;;;;;;;16.00;99.90;;;;;;8383544;28;19968;-76
2023/05/11 07:58:40;;;;;;;;;;;16.00;99.90;;;;;;8395259;28;19943;-76
2023/05/11 08:02:42;;;;;;;;;;;16.10;99.90;;;;;;8380227;28;20007;-76
2023/05/11 08:06:43;;;;;;;;;;;16.10;99.90;;;;;;8389658;28;19937;-76
2023/05/11 08:10:45;;;;;;;;;;;16.10;99.90;;;;;;8368451;28;19932;-76
2023/05/11 08:14:47;;;;;;;;;;;16.10;99.90;;;;;;8381638;28;19924;-76
2023/05/11 08:18:48;;;;;;;;;;;16.30;99.90;;;;;;8368296;28;19929;-76
2023/05/11 08:22:50;;;;;;;;;;;16.30;99.90;;;;;;8375343;28;19924;-76
2023/05/11 08:26:52;;;;;;;;;;;16.30;99.90;;;;;;8392770;28;19924;-76
2023/05/11 08:30:55;;;;;;;;;;;16.30;99.90;;;;;;8384855;28;20298;-76
2023/05/11 08:34:56;;;;;;;;;;;16.50;99.90;;;;;;8376642;28;19925;-77
2023/05/11 08:38:58;;;;;;;;;;;16.70;99.90;;;;;;8375346;28;19952;-76
2023/05/11 08:43:02;;;;;;;;;;;16.80;99.90;;;;;;8391343;28;19931;-77
2023/05/11 08:47:05;;;;;;;;;;;16.90;99.90;;;;;;8391386;28;19931;-76
2023/05/11 08:51:23;;;;;;;;;;;17.00;99.90;;;;;;8391724;28;19928;-77
2023/05/11 08:55:25;;;;;;;;;;;17.00;99.90;;;;;;8388861;28;20159;-76
2023/05/11 08:59:27;;;;;;;;;;;16.90;99.90;;;;;;8372823;28;20403;-76
2023/05/11 09:03:29;;;;;;;;;;;16.80;99.90;;;;;;8375200;28;20388;-76
2023/05/11 09:07:33;;;;;;;;;;;16.80;99.90;;;;;;8374325;28;19978;-77
2023/05/11 09:11:35;;;;;;;;;;;16.80;99.90;;;;;;8378411;28;19929;-77
2023/05/11 09:15:36;;;;;;;;;;;16.80;99.90;;;;;;8381005;28;20385;-76
2023/05/11 09:19:58;;;;;;;;;;;16.80;99.90;;;;;;8363362;28;19980;-76
2023/05/11 09:24:01;;;;;;;;;;;16.80;99.90;;;;;;8362650;28;20024;-76
2023/05/11 09:28:02;;;;;;;;;;;16.70;99.90;;;;;;8345524;28;19935;-77
2023/05/11 09:32:05;;;;;;;;;;;16.60;99.90;;;;;;8359973;28;19995;-77
2023/05/11 09:36:08;;;;;;;;;;;16.60;99.90;;;;;;8363055;28;19978;-77
2023/05/11 09:40:10;;;;;;;;;;;16.70;99.90;;;;;;8363312;28;20393;-76
2023/05/11 09:44:30;;;;;;;;;;;16.70;99.90;;;;;;8366910;28;19961;-77
2023/05/11 09:48:34;;;;;;;;;;;16.70;99.90;;;;;;8370308;28;20306;-77
2023/05/11 09:52:42;;;;;;;;;;;16.80;99.90;;;;;;8375258;28;20335;-76
2023/05/11 09:56:53;;;;;;;;;;;16.80;99.90;;;;;;8359850;28;19924;-74
2023/05/11 10:00:54;;;;;;;;;;;16.80;99.90;;;;;;8355956;28;19924;-76
2023/05/11 10:04:57;;;;;;;;;;;16.70;99.90;;;;;;8367641;28;19976;-76
2023/05/11 10:09:07;;;;;;;;;;;16.70;99.90;;;;;;8357603;28;19966;-77
2023/05/11 10:13:09;;;;;;;;;;;16.60;99.90;;;;;;8374572;28;20019;-77
2023/05/11 10:17:11;;;;;;;;;;;16.60;99.90;;;;;;8360255;28;19928;-77
2023/05/11 10:21:14;;;;;;;;;;;16.60;99.90;;;;;;8367477;28;19932;-77
2023/05/11 10:25:16;;;;;;;;;;;16.70;99.90;;;;;;8382367;28;19932;-77
2023/05/11 10:29:18;;;;;;;;;;;16.70;99.90;;;;;;8372863;28;19925;-77
2023/05/11 10:33:20;;;;;;;;;;;16.80;99.90;;;;;;8370269;28;19924;-76
2023/05/11 10:37:23;;;;;;;;;;;16.90;99.90;;;;;;8378767;28;19932;-76
2023/05/11 10:41:30;;;;;;;;;;;17.00;99.90;;;;;;8368476;28;19925;-76
2023/05/11 10:45:35;;;;;;;;;;;17.10;99.90;;;;;;8373279;28;20382;-77
2023/05/11 10:49:37;;;;;;;;;;;17.40;99.90;;;;;;8364609;28;19925;-76
2023/05/11 10:53:38;;;;;;;;;;;17.50;99.90;;;;;;8361740;28;20011;-77
2023/05/11 10:57:40;;;;;;;;;;;17.60;99.90;;;;;;8359147;28;19959;-77
2023/05/11 11:01:43;;;;;;;;;;;17.70;99.90;;;;;;8360964;28;20339;-77
2023/05/11 11:05:45;;;;;;;;;;;17.80;99.90;;;;;;8362894;28;20328;-76
2023/05/11 11:09:55;;;;;;;;;;;17.80;99.90;;;;;;8382194;28;19928;-77
2023/05/11 11:13:57;;;;;;;;;;;17.80;99.90;;;;;;8349080;28;20036;-76
2023/05/11 11:18:18;;;;;;;;;;;17.80;99.90;;;;;;8362947;28;19930;-77
2023/05/11 11:22:35;;;;;;;;;;;17.80;99.90;;;;;;8360391;28;19932;-77
2023/05/11 11:26:49;;;;;;;;;;;17.80;99.90;;;;;;8359924;28;20455;-77
2023/05/11 11:31:09;;;;;;;;;;;17.80;99.90;;;;;;8372148;28;20426;-77
2023/05/11 11:35:30;;;;;;;;;;;17.80;99.90;;;;;;8357014;28;19925;-76
2023/05/11 11:39:41;;;;;;;;;;;17.80;99.90;;;;;;8369134;28;19968;-77
2023/05/11 11:43:46;;;;;;;;;;;17.70;99.90;;;;;;8371102;28;19935;-76
2023/05/11 11:48:04;;;;;;;;;;;17.50;99.90;;;;;;8347931;28;20035;-76
2023/05/11 11:52:10;;;;;;;;;;;17.40;99.90;;;;;;8364348;28;19925;-76
2023/05/11 11:56:14;;;;;;;;;;;17.30;99.90;;;;;;8377018;28;20013;-77
2023/05/11 12:00:19;;;;;;;;;;;17.30;99.90;;;;;;8359477;28;20288;-76
2023/05/11 12:04:23;;;;;;;;;;;17.20;99.90;;;;;;8368867;28;19929;-76
2023/05/11 12:08:26;;;;;;;;;;;17.20;99.90;;;;;;8364277;28;20335;-76
2023/05/11 12:12:29;;;;;;;;;;;17.10;99.90;;;;;;8365626;28;19974;-76
2023/05/11 12:16:31;;;;;;;;;;;17.10;99.90;;;;;;8384230;28;20504;-76
2023/05/11 12:20:32;;;;;;;;;;;17.00;99.90;;;;;;8377155;28;19947;-76
2023/05/11 12:24:34;;;;;;;;;;;16.90;99.90;;;;;;8364118;28;21608;-76
2023/05/11 12:28:36;;;;;;;;;;;16.80;99.90;;;;;;8362852;28;19955;-76
2023/05/11 12:32:38;;;;;;;;;;;16.70;99.90;;;;;;8368105;28;19979;-76
2023/05/11 12:36:40;;;;;;;;;;;16.70;99.90;;;;;;8361526;28;19924;-76
2023/05/11 12:40:49;;;;;;;;;;;16.60;99.90;;;;;;8359666;28;20332;-76
2023/05/11 12:44:51;;;;;;;;;;;16.50;99.90;;;;;;8347732;28;19928;-76
2023/05/11 12:48:52;;;;;;;;;;;16.40;99.90;;;;;;8358661;28;19924;-76
2023/05/11 12:53:10;;;;;;;;;;;16.40;99.90;;;;;;8362956;28;19951;-77
2023/05/11 12:57:22;;;;;;;;;;;16.40;99.90;;;;;;8354836;28;20304;-76
2023/05/11 13:01:25;;;;;;;;;;;16.30;99.90;;;;;;8358195;28;19924;-76
2023/05/11 13:05:27;;;;;;;;;;;16.30;99.90;;;;;;8362441;28;19929;-76
2023/05/11 13:09:28;;;;;;;;;;;16.30;99.90;;;;;;8357021;28;19939;-76
2023/05/11 13:13:30;;;;;;;;;;;16.20;99.90;;;;;;8356505;28;19928;-76
2023/05/11 13:17:33;;;;;;;;;;;16.20;99.90;;;;;;8339921;28;19928;-76
2023/05/11 13:21:34;;;;;;;;;;;16.10;99.90;;;;;;8360525;28;19929;-77
2023/05/11 13:25:46;;;;;;;;;;;16.10;99.90;;;;;;8361549;28;19959;-76
2023/05/11 13:29:47;;;;;;;;;;;16.10;99.90;;;;;;8369130;28;19933;-76
2023/05/11 13:33:49;;;;;;;;;;;16.10;99.90;;;;;;8362638;28;20410;-76
2023/05/11 13:37:51;;;;;;;;;;;16.10;99.90;;;;;;8377804;28;19975;-76
2023/05/11 13:41:53;;;;;;;;;;;16.10;99.90;;;;;;8378693;28;19924;-76
2023/05/11 13:45:56;;;;;;;;;;;16.10;99.90;;;;;;8362362;28;20023;-76
2023/05/11 13:49:58;;;;;;;;;;;16.10;99.90;;;;;;8362910;28;20350;-76
2023/05/11 13:54:01;;;;;;;;;;;16.10;99.90;;;;;;8371558;28;19928;-76
2023/05/11 13:58:03;;;;;;;;;;;16.10;99.90;;;;;;8355481;28;19983;-76
2023/05/11 14:02:04;;;;;;;;;;;16.20;99.90;;;;;;8367972;28;19932;-76
2023/05/11 14:06:06;;;;;;;;;;;16.20;99.90;;;;;;8371601;28;19925;-77
2023/05/11 14:10:09;;;;;;;;;;;16.10;99.90;;;;;;8371203;28;20396;-76
2023/05/11 14:14:12;;;;;;;;;;;16.10;99.90;;;;;;8371946;28;19924;-78
2023/05/11 14:18:14;;;;;;;;;;;16.00;99.90;;;;;;8370664;28;19925;-77
2023/05/11 14:22:16;;;;;;;;;;;15.90;99.90;;;;;;8370079;28;19934;-77
2023/05/11 14:26:17;;;;;;;;;;;15.90;99.90;;;;;;8345000;28;19964;-77
2023/05/11 14:30:19;;;;;;;;;;;15.90;99.90;;;;;;8364527;28;19932;-77
2023/05/11 14:34:21;;;;;;;;;;;15.90;99.90;;;;;;8367486;28;20327;-77
2023/05/11 14:38:23;;;;;;;;;;;15.90;99.90;;;;;;8372957;28;20350;-77
2023/05/11 14:42:25;;;;;;;;;;;15.90;99.90;;;;;;8367346;28;19974;-77
2023/05/11 14:46:26;;;;;;;;;;;16.00;99.90;;;;;;8350491;28;19929;-77
2023/05/11 14:50:28;;;;;;;;;;;16.00;99.90;;;;;;8369173;28;19932;-77
2023/05/11 14:54:30;;;;;;;;;;;16.00;99.90;;;;;;8344599;28;19928;-77
2023/05/11 14:58:31;;;;;;;;;;;16.10;99.90;;;;;;8362138;28;20011;-76
2023/05/11 15:02:33;;;;;;;;;;;16.10;99.90;;;;;;8376205;28;20304;-77
2023/05/11 15:06:35;;;;;;;;;;;16.10;99.90;;;;;;8371640;28;20019;-77
2023/05/11 15:10:38;;;;;;;;;;;16.10;99.90;;;;;;8361806;28;20009;-77
2023/05/11 15:14:40;;;;;;;;;;;16.10;99.90;;;;;;8367014;28;20399;-77
2023/05/11 15:18:41;;;;;;;;;;;16.10;99.90;;;;;;8367923;28;19924;-77
2023/05/11 15:22:43;;;;;;;;;;;16.20;99.90;;;;;;8362382;28;19931;-77
2023/05/11 15:26:45;;;;;;;;;;;16.10;99.90;;;;;;8368358;28;20027;-77
2023/05/11 15:30:47;;;;;;;;;;;16.20;99.90;;;;;;8356500;28;19939;-77
2023/05/11 15:34:49;;;;;;;;;;;16.20;99.90;;;;;;8369558;28;19982;-77
2023/05/11 15:39:00;;;;;;;;;;;16.30;99.90;;;;;;8351315;28;19964;-77
2023/05/11 15:43:01;;;;;;;;;;;16.40;99.90;;;;;;8363514;28;19974;-77
2023/05/11 15:47:04;;;;;;;;;;;16.40;99.90;;;;;;8372260;28;20025;-76
2023/05/11 15:51:06;;;;;;;;;;;16.60;99.90;;;;;;8380151;28;19939;-77
2023/05/11 15:55:08;;;;;;;;;;;16.70;99.90;;;;;;8352129;28;19931;-77
2023/05/11 15:59:09;;;;;;;;;;;16.80;99.90;;;;;;8371554;28;19928;-77
2023/05/11 16:03:11;;;;;;;;;;;16.90;99.90;;;;;;8367066;28;20012;-77
2023/05/11 16:07:13;;;;;;;;;;;17.00;99.90;;;;;;8349514;28;19971;-77
2023/05/11 16:11:15;;;;;;;;;;;17.00;99.90;;;;;;8370968;28;19940;-77
2023/05/11 16:15:16;;;;;;;;;;;17.00;99.90;;;;;;8371910;28;20277;-77
2023/05/11 16:19:18;;;;;;;;;;;17.20;99.90;;;;;;8361569;28;20416;-77
2023/05/11 16:23:20;;;;;;;;;;;17.30;99.90;;;;;;8363519;28;19935;-77
2023/05/11 16:27:21;;;;;;;;;;;17.40;99.90;;;;;;8365297;28;19935;-77
2023/05/11 16:31:23;;;;;;;;;;;17.40;99.90;;;;;;8365459;28;20478;-78
2023/05/11 16:35:25;;;;;;;;;;;17.50;99.90;;;;;;8347461;28;20064;-78
2023/05/11 16:39:27;;;;;;;;;;;17.50;99.90;;;;;;8364862;28;19932;-77
2023/05/11 16:43:28;;;;;;;;;;;17.50;99.90;;;;;;8365687;28;19975;-77
2023/05/11 16:47:30;;;;;;;;;;;17.50;99.90;;;;;;8370509;28;19928;-77
2023/05/11 16:51:32;;;;;;;;;;;17.50;99.90;;;;;;8352883;28;19977;-77
2023/05/11 16:55:34;;;;;;;;;;;17.40;99.90;;;;;;8341980;28;20399;-77
2023/05/11 16:59:36;;;;;;;;;;;17.40;99.90;;;;;;8358853;28;20411;-77
2023/05/11 17:03:38;;;;;;;;;;;17.40;99.90;;;;;;8358788;28;19924;-77
2023/05/11 17:07:41;;;;;;;;;;;17.30;99.90;;;;;;8356611;28;19966;-77
2023/05/11 17:11:43;;;;;;;;;;;17.30;99.90;;;;;;8356764;28;19929;-77
2023/05/11 17:15:44;;;;;;;;;;;17.20;99.90;;;;;;8369561;28;19928;-77
2023/05/11 17:19:46;;;;;;;;;;;17.20;99.90;;;;;;8389270;28;20019;-77
2023/05/11 17:23:48;;;;;;;;;;;17.20;99.90;;;;;;8368421;28;20012;-77
2023/05/11 17:27:49;;;;;;;;;;;17.10;99.90;;;;;;8372806;28;20755;-77
2023/05/11 17:31:51;;;;;;;;;;;17.10;99.90;;;;;;8369034;28;19928;-77
2023/05/11 17:35:53;;;;;;;;;;;17.10;99.90;;;;;;8364998;28;19932;-77
2023/05/11 17:39:55;;;;;;;;;;;17.10;99.90;;;;;;8357592;28;19935;-77
2023/05/11 17:43:57;;;;;;;;;;;17.00;99.90;;;;;;8363038;28;19932;-77
2023/05/11 17:47:58;;;;;;;;;;;16.90;99.90;;;;;;8354581;28;19983;-77
2023/05/11 17:52:00;;;;;;;;;;;16.80;99.90;;;;;;8378233;28;19972;-77
2023/05/11 17:56:02;;;;;;;;;;;16.70;99.90;;;;;;8366629;28;19929;-77
2023/05/11 18:00:05;;;;;;;;;;;16.60;99.90;;;;;;8362945;28;19929;-77
2023/05/11 18:04:06;;;;;;;;;;;16.50;99.90;;;;;;8331130;28;20348;-77
2023/05/11 18:08:08;;;;;;;;;;;16.40;99.90;;;;;;8330385;28;20292;-77
2023/05/11 18:12:10;;;;;;;;;;;16.30;99.90;;;;;;8333665;28;19977;-78
2023/05/11 18:16:12;;;;;;;;;;;16.20;99.90;;;;;;8331921;28;19972;-78
2023/05/11 18:20:14;;;;;;;;;;;16.10;99.90;;;;;;8333803;28;19935;-77
2023/05/11 18:24:17;;;;;;;;;;;16.10;99.90;;;;;;8341084;28;19936;-78
2023/05/11 18:28:18;;;;;;;;;;;16.00;99.90;;;;;;8331381;28;20156;-78
2023/05/11 18:32:20;;;;;;;;;;;16.00;99.90;;;;;;8331115;28;19991;-78
2023/05/11 18:36:22;;;;;;;;;;;15.90;99.90;;;;;;8325787;28;20642;-78
2023/05/11 18:40:24;;;;;;;;;;;15.90;99.90;;;;;;8347965;28;20374;-78
2023/05/11 18:44:26;;;;;;;;;;;15.90;99.90;;;;;;8334954;28;19929;-78
2023/05/11 18:48:28;;;;;;;;;;;15.80;99.90;;;;;;8334654;28;19936;-77
2023/05/11 18:52:29;;;;;;;;;;;15.80;99.90;;;;;;8350632;28;19937;-77
2023/05/11 18:56:31;;;;;;;;;;;15.80;99.90;;;;;;8327647;28;19979;-78
2023/05/11 19:00:36;;;;;;;;;;;15.70;99.90;;;;;;8353651;28;20603;-78
2023/05/11 19:04:38;;;;;;;;;;;15.70;99.90;;;;;;8379046;28;19928;-78
2023/05/11 19:08:39;;;;;;;;;;;15.70;99.90;;;;;;8362115;28;20420;-77
2023/05/11 19:12:41;;;;;;;;;;;15.70;99.90;;;;;;8358172;28;20016;-78
2023/05/11 19:16:42;;;;;;;;;;;15.70;99.90;;;;;;8344087;28;20359;-78
2023/05/11 19:20:44;;;;;;;;;;;15.70;99.90;;;;;;8350774;28;20974;-77
2023/05/11 19:24:46;;;;;;;;;;;15.70;99.90;;;;;;8368397;28;19925;-78
2023/05/11 19:28:48;;;;;;;;;;;15.60;99.90;;;;;;8376105;28;19924;-77
2023/05/11 19:32:49;;;;;;;;;;;15.60;99.90;;;;;;8354342;28;19964;-78
2023/05/11 19:36:51;;;;;;;;;;;15.60;99.90;;;;;;8363085;28;20019;-77
2023/05/11 19:40:52;;;;;;;;;;;15.50;99.90;;;;;;8368112;28;20307;-77
2023/05/11 19:44:54;;;;;;;;;;;15.50;99.90;;;;;;8361136;28;19924;-77
2023/05/11 19:48:56;;;;;;;;;;;15.50;99.90;;;;;;8351651;28;19931;-77
2023/05/11 19:52:58;;;;;;;;;;;15.40;99.90;;;;;;8378176;28;19932;-77
2023/05/11 19:57:00;;;;;;;;;;;15.40;99.90;;;;;;8348633;28;20352;-77
2023/05/11 20:01:01;;;;;;;;;;;15.40;99.90;;;;;;8365384;28;21333;-77
2023/05/11 20:05:03;;;;;;;;;;;15.40;99.90;;;;;;8363849;28;19947;-77
2023/05/11 20:09:06;;;;;;;;;;;15.30;99.90;;;;;;8365861;28;19935;-77
2023/05/11 20:13:07;;;;;;;;;;;15.30;99.90;;;;;;8351728;28;20360;-77
2023/05/11 20:17:09;;;;;;;;;;;15.30;99.90;;;;;;8363532;28;19943;-77
2023/05/11 20:21:11;;;;;;;;;;;15.30;99.90;;;;;;8357914;28;20368;-77
2023/05/11 20:25:13;;;;;;;;;;;15.30;99.90;;;;;;8362129;28;20051;-77
2023/05/11 20:29:19;;;;;;;;;;;15.30;99.90;;;;;;8385210;28;20367;-77
2023/05/11 20:33:21;;;;;;;;;;;15.30;99.90;;;;;;8366169;28;19928;-77
2023/05/11 20:37:25;;;;;;;;;;;15.30;99.90;;;;;;8349073;28;19972;-77
2023/05/11 20:41:28;;;;;;;;;;;15.30;99.90;;;;;;8348071;28;19932;-77
2023/05/11 20:45:30;;;;;;;;;;;15.20;99.90;;;;;;8360090;28;19928;-77
2023/05/11 20:49:32;;;;;;;;;;;15.20;99.90;;;;;;8365142;28;19971;-77
2023/05/11 20:53:39;;;;;;;;;;;15.20;99.90;;;;;;8366283;28;19932;-77
2023/05/11 20:57:41;;;;;;;;;;;15.10;99.90;;;;;;8355781;28;20380;-77
2023/05/11 21:01:42;;;;;;;;;;;15.10;99.90;;;;;;8364004;28;19932;-77
2023/05/11 21:05:44;;;;;;;;;;;15.10;99.90;;;;;;8376247;28;19930;-77
2023/05/11 21:09:46;;;;;;;;;;;15.10;99.90;;;;;;8400361;28;20024;-77
2023/05/11 21:13:48;;;;;;;;;;;15.00;99.90;;;;;;8390604;28;20023;-77
2023/05/11 21:17:49;;;;;;;;;;;15.00;99.90;;;;;;8389506;28;19939;-77
2023/05/11 21:21:51;;;;;;;;;;;15.00;99.90;;;;;;8390341;28;20387;-76
2023/05/11 21:25:53;;;;;;;;;;;15.00;99.90;;;;;;8374691;28;20299;-77
2023/05/11 21:29:55;;;;;;;;;;;14.90;99.90;;;;;;8384048;28;20025;-76
2023/05/11 21:33:57;;;;;;;;;;;14.90;99.90;;;;;;8382198;28;19932;-76
2023/05/11 21:37:58;;;;;;;;;;;14.90;99.90;;;;;;8387851;28;19924;-77
2023/05/11 21:42:01;;;;;;;;;;;14.90;99.90;;;;;;8382404;28;20406;-77
2023/05/11 21:46:03;;;;;;;;;;;14.90;99.90;;;;;;8359044;28;19931;-76
2023/05/11 21:50:06;;;;;;;;;;;14.90;99.90;;;;;;8391955;28;19956;-77
2023/05/11 21:54:08;;;;;;;;;;;14.80;99.90;;;;;;8391681;28;19932;-77
2023/05/11 21:58:10;;;;;;;;;;;14.80;99.90;;;;;;8390378;28;19939;-76
2023/05/11 22:02:12;;;;;;;;;;;14.80;99.90;;;;;;8398338;28;20298;-77
2023/05/11 22:06:14;;;;;;;;;;;14.80;99.90;;;;;;8376308;28;19925;-77
2023/05/11 22:10:17;;;;;;;;;;;14.80;99.90;;;;;;8389239;28;21302;-77
2023/05/11 22:14:22;;;;;;;;;;;14.80;99.90;;;;;;8361616;28;20336;-76
2023/05/11 22:28:31;;;;;;;;;;;14.70;99.90;;;;;;8385874;28;19967;-76
2023/05/11 22:32:33;;;;;;;;;;;14.70;99.90;;;;;;8387036;28;19940;-76
2023/05/11 22:36:35;;;;;;;;;;;14.70;99.90;;;;;;8381942;28;19928;-76
2023/05/11 22:40:36;;;;;;;;;;;14.60;99.90;;;;;;8368508;28;20003;-76
2023/05/11 22:44:38;;;;;;;;;;;14.60;99.90;;;;;;8380262;28;20218;-77
2023/05/11 22:48:40;;;;;;;;;;;14.60;99.90;;;;;;8373394;28;20027;-77
2023/05/11 22:52:42;;;;;;;;;;;14.60;99.90;;;;;;8378127;28;20388;-77
2023/05/11 22:56:43;;;;;;;;;;;14.60;99.90;;;;;;8363889;28;19963;-77
2023/05/11 23:00:45;;;;;;;;;;;14.50;99.90;;;;;;8373232;28;20060;-77
2023/05/11 23:04:48;;;;;;;;;;;14.50;99.90;;;;;;8386219;28;20287;-77
2023/05/11 23:08:50;;;;;;;;;;;14.50;99.90;;;;;;8372278;28;20390;-77
2023/05/11 23:12:51;;;;;;;;;;;14.50;99.90;;;;;;8373798;28;19939;-76
2023/05/11 23:16:53;;;;;;;;;;;14.50;99.90;;;;;;8381722;28;20036;-77
2023/05/11 23:20:55;;;;;;;;;;;14.50;99.90;;;;;;8368002;28;19928;-77
2023/05/11 23:24:59;;;;;;;;;;;14.40;99.90;;;;;;8384554;28;20288;-77
2023/05/11 23:29:00;;;;;;;;;;;14.40;99.90;;;;;;8387703;28;19930;-77
2023/05/11 23:33:02;;;;;;;;;;;14.40;99.90;;;;;;8393698;28;19990;-77
2023/05/11 23:37:04;;;;;;;;;;;14.30;99.90;;;;;;8394291;28;19936;-77
2023/05/11 23:41:05;;;;;;;;;;;14.30;99.90;;;;;;8381050;28;20378;-77
2023/05/11 23:45:07;;;;;;;;;;;14.20;99.90;;;;;;8401791;28;19933;-77
2023/05/11 23:49:09;;;;;;;;;;;14.20;99.90;;;;;;8392131;28;19942;-77
2023/05/11 23:53:10;;;;;;;;;;;14.20;99.90;;;;;;8378193;28;20007;-77
2023/05/11 23:57:12;;;;;;;;;;;14.20;99.90;;;;;;8376759;28;19930;-77
